Time;durP1;ratioP1;P1;durP2;ratioP2;P2;SDS_P1;SDS_P2;PMS_P1;PMS_P2;Temp;Humidity;BMP_temperature;BMP_pressure;BME280_temperature;BME280_humidity;BME280_pressure;Samples;Min_cycle;Max_cycle;Signal;HPM_P1;HPM_P2
2022/05/02 00:00:38;;;;;;;;;;;9.90;67.80;;;;;;2089931;28;19921;-91
2022/05/02 00:01:39;;;;;;;;;;;9.90;67.80;;;;;;2081971;28;19921;-91
2022/05/02 00:02:40;;;;;;;;;;;9.90;67.80;;;;;;2090879;28;20363;-91
2022/05/02 00:03:40;;;;;;;;;;;9.90;67.80;;;;;;2081692;28;19916;-91
2022/05/02 00:04:41;;;;;;;;;;;9.90;67.70;;;;;;2081641;28;20301;-91
2022/05/02 00:05:41;;;;;;;;;;;9.90;67.70;;;;;;2087948;28;20756;-91
2022/05/02 00:06:42;;;;;;;;;;;9.90;67.80;;;;;;2081211;28;20320;-90
2022/05/02 00:07:43;;;;;;;;;;;9.90;67.70;;;;;;2089895;28;19913;-91
2022/05/02 00:08:43;;;;;;;;;;;9.90;67.70;;;;;;2085065;28;21709;-91
2022/05/02 00:09:44;;;;;;;;;;;9.90;67.70;;;;;;2074075;28;19913;-91
2022/05/02 00:10:44;;;;;;;;;;;9.90;67.60;;;;;;2085750;28;19966;-90
2022/05/02 00:11:45;;;;;;;;;;;9.90;67.60;;;;;;2073609;28;19914;-91
2022/05/02 00:12:45;;;;;;;;;;;9.90;67.60;;;;;;2097865;28;19913;-91
2022/05/02 00:13:46;;;;;;;;;;;9.90;67.60;;;;;;2082121;28;20019;-91
2022/05/02 00:14:47;;;;;;;;;;;10.00;67.70;;;;;;2073333;28;19918;-91
2022/05/02 00:15:47;;;;;;;;;;;9.90;67.60;;;;;;2082191;28;19967;-91
2022/05/02 00:16:48;;;;;;;;;;;9.90;67.60;;;;;;2088896;28;19916;-90
2022/05/02 00:17:57;;;;;;;;;;;9.90;67.60;;;;;;2090622;28;19913;-91
2022/05/02 00:18:58;;;;;;;;;;;10.00;67.70;;;;;;2067648;28;19990;-91
2022/05/02 00:19:58;;;;;;;;;;;9.90;67.60;;;;;;2084994;28;19923;-91
2022/05/02 00:20:59;;;;;;;;;;;9.90;67.60;;;;;;2082620;28;20289;-91
2022/05/02 00:21:59;;;;;;;;;;;9.90;67.60;;;;;;2089156;28;19920;-90
2022/05/02 00:23:01;;;;;;;;;;;9.90;67.60;;;;;;2098698;28;19920;-90
2022/05/02 00:24:02;;;;;;;;;;;9.90;67.60;;;;;;2081090;28;19959;-91
2022/05/02 00:25:03;;;;;;;;;;;9.90;67.60;;;;;;2082616;28;19909;-91
2022/05/02 00:26:04;;;;;;;;;;;9.90;67.70;;;;;;2089646;28;19916;-91
2022/05/02 00:27:05;;;;;;;;;;;9.90;67.70;;;;;;2096812;28;20367;-91
2022/05/02 00:28:05;;;;;;;;;;;9.90;67.70;;;;;;2090414;28;20301;-91
2022/05/02 00:29:06;;;;;;;;;;;9.90;67.70;;;;;;2073731;28;20440;-90
2022/05/02 00:30:07;;;;;;;;;;;9.90;67.80;;;;;;2076243;28;20392;-91
2022/05/02 00:31:08;;;;;;;;;;;9.80;67.80;;;;;;2081290;28;19913;-91
2022/05/02 00:32:09;;;;;;;;;;;9.80;67.80;;;;;;2090143;28;19924;-91
2022/05/02 00:33:10;;;;;;;;;;;9.80;67.80;;;;;;2090436;28;19995;-91
2022/05/02 00:34:10;;;;;;;;;;;9.80;67.90;;;;;;2081199;28;20413;-91
2022/05/02 00:35:11;;;;;;;;;;;9.80;67.90;;;;;;2090507;28;19967;-91
2022/05/02 00:36:12;;;;;;;;;;;9.80;67.90;;;;;;2090868;28;19966;-90
2022/05/02 00:37:15;;;;;;;;;;;9.80;67.90;;;;;;2093397;28;19913;-90
2022/05/02 00:38:15;;;;;;;;;;;9.80;68.00;;;;;;2082994;28;19920;-91
2022/05/02 00:39:16;;;;;;;;;;;9.80;68.00;;;;;;2095999;28;19913;-90
2022/05/02 00:40:17;;;;;;;;;;;9.80;68.00;;;;;;2090897;28;19919;-91
2022/05/02 00:41:19;;;;;;;;;;;9.70;68.00;;;;;;2097053;28;19986;-91
2022/05/02 00:42:20;;;;;;;;;;;9.70;68.00;;;;;;2103274;28;19934;-91
2022/05/02 00:43:20;;;;;;;;;;;9.70;68.10;;;;;;2099691;28;19923;-91
2022/05/02 00:44:21;;;;;;;;;;;9.70;68.10;;;;;;2089805;28;19999;-91
2022/05/02 00:45:21;;;;;;;;;;;9.70;68.10;;;;;;2090284;28;20226;-91
2022/05/02 00:46:23;;;;;;;;;;;9.70;68.10;;;;;;2090463;28;19935;-92
2022/05/02 00:47:23;;;;;;;;;;;9.70;68.20;;;;;;2090335;28;19909;-91
2022/05/02 00:48:24;;;;;;;;;;;9.70;68.10;;;;;;2089671;28;19917;-91
2022/05/02 00:49:24;;;;;;;;;;;9.70;68.20;;;;;;2074940;28;19917;-91
2022/05/02 00:50:33;;;;;;;;;;;9.70;68.20;;;;;;2073388;28;20012;-91
2022/05/02 00:51:33;;;;;;;;;;;9.70;68.20;;;;;;2090769;28;19940;-91
2022/05/02 00:52:34;;;;;;;;;;;9.70;68.30;;;;;;2092418;28;19912;-91
2022/05/02 00:53:35;;;;;;;;;;;9.70;68.30;;;;;;2092640;28;19921;-91
2022/05/02 00:54:37;;;;;;;;;;;9.60;68.20;;;;;;2090461;28;19917;-91
2022/05/02 00:55:38;;;;;;;;;;;9.60;68.30;;;;;;2098045;28;20328;-91
2022/05/02 00:56:39;;;;;;;;;;;9.60;68.30;;;;;;2092224;28;19923;-91
2022/05/02 00:57:40;;;;;;;;;;;9.60;68.40;;;;;;2084939;28;19940;-90
2022/05/02 00:58:41;;;;;;;;;;;9.60;68.40;;;;;;2092329;28;19924;-90
2022/05/02 00:59:41;;;;;;;;;;;9.60;68.50;;;;;;2101750;28;19966;-90
2022/05/02 01:00:42;;;;;;;;;;;9.50;68.40;;;;;;2091855;28;20014;-90
2022/05/02 01:01:43;;;;;;;;;;;9.50;68.50;;;;;;2084946;28;19928;-91
2022/05/02 01:02:44;;;;;;;;;;;9.50;68.50;;;;;;2085521;28;19914;-91
2022/05/02 01:03:44;;;;;;;;;;;9.50;68.60;;;;;;2084550;28;19963;-90
2022/05/02 01:04:45;;;;;;;;;;;9.50;68.60;;;;;;2104850;28;19916;-91
2022/05/02 01:07:19;;;;;;;;;;;9.40;68.70;;;;;;2098707;28;19946;-90
2022/05/02 01:08:19;;;;;;;;;;;9.40;68.70;;;;;;2093109;28;20026;-91
2022/05/02 01:09:20;;;;;;;;;;;9.40;68.80;;;;;;2083176;28;19917;-91
2022/05/02 01:10:20;;;;;;;;;;;9.40;68.80;;;;;;2085825;28;19917;-91
2022/05/02 01:11:21;;;;;;;;;;;9.40;68.80;;;;;;2083639;28;19995;-91
2022/05/02 01:12:24;;;;;;;;;;;9.40;68.90;;;;;;2083984;28;19987;-90
2022/05/02 01:13:40;;;;;;;;;;;9.40;68.90;;;;;;2090865;28;19920;-91
2022/05/02 01:14:42;;;;;;;;;;;9.40;69.00;;;;;;2086395;28;20003;-91
2022/05/02 01:15:43;;;;;;;;;;;9.40;69.00;;;;;;2091893;28;20031;-91
2022/05/02 01:16:43;;;;;;;;;;;9.40;69.00;;;;;;2098458;28;19913;-91
2022/05/02 01:17:45;;;;;;;;;;;9.30;68.90;;;;;;2097987;28;19920;-90
2022/05/02 01:18:46;;;;;;;;;;;9.30;68.90;;;;;;2087799;28;19920;-90
2022/05/02 01:19:47;;;;;;;;;;;9.30;68.90;;;;;;2095659;28;19928;-90
2022/05/02 01:20:48;;;;;;;;;;;9.30;69.00;;;;;;2101516;28;20426;-91
2022/05/02 01:21:48;;;;;;;;;;;9.30;69.00;;;;;;2083981;28;19964;-90
2022/05/02 01:22:49;;;;;;;;;;;9.30;69.00;;;;;;2093383;28;19935;-91
2022/05/02 01:23:51;;;;;;;;;;;9.30;69.00;;;;;;2105551;28;19924;-91
2022/05/02 01:24:52;;;;;;;;;;;9.30;69.00;;;;;;2088823;28;19913;-91
2022/05/02 01:25:52;;;;;;;;;;;9.30;69.00;;;;;;2093083;28;19924;-90
2022/05/02 01:26:53;;;;;;;;;;;9.30;69.10;;;;;;2087515;28;19913;-91
2022/05/02 01:27:53;;;;;;;;;;;9.30;69.00;;;;;;2092993;28;19988;-91
2022/05/02 01:28:55;;;;;;;;;;;9.30;69.10;;;;;;2093264;28;19913;-91
2022/05/02 01:29:56;;;;;;;;;;;9.30;69.00;;;;;;2092626;28;19956;-91
2022/05/02 01:30:57;;;;;;;;;;;9.30;69.00;;;;;;2098312;28;20034;-91
2022/05/02 01:31:58;;;;;;;;;;;9.30;69.00;;;;;;2083789;28;20354;-91
2022/05/02 01:32:58;;;;;;;;;;;9.30;69.00;;;;;;2084936;28;19913;-91
2022/05/02 01:34:00;;;;;;;;;;;9.30;69.00;;;;;;2092269;28;19959;-91
2022/05/02 01:35:00;;;;;;;;;;;9.30;69.00;;;;;;2104812;27;19916;-91
2022/05/02 01:36:01;;;;;;;;;;;9.30;69.00;;;;;;2080251;28;19917;-91
2022/05/02 01:37:02;;;;;;;;;;;9.30;69.00;;;;;;2082368;28;19979;-91
2022/05/02 01:38:03;;;;;;;;;;;9.30;69.00;;;;;;2075848;28;20413;-91
2022/05/02 01:39:03;;;;;;;;;;;9.30;69.00;;;;;;2084193;28;19924;-91
2022/05/02 01:40:04;;;;;;;;;;;9.30;69.00;;;;;;2094553;28;19966;-91
2022/05/02 01:41:06;;;;;;;;;;;9.30;69.00;;;;;;2092921;28;19952;-91
2022/05/02 01:42:07;;;;;;;;;;;9.30;69.00;;;;;;2084548;28;19916;-91
2022/05/02 01:43:09;;;;;;;;;;;9.30;69.00;;;;;;2092834;28;20388;-90
2022/05/02 01:44:09;;;;;;;;;;;9.30;69.00;;;;;;2101183;28;19930;-91
2022/05/02 01:45:10;;;;;;;;;;;9.30;69.00;;;;;;2092098;28;19916;-91
2022/05/02 01:46:11;;;;;;;;;;;9.30;69.10;;;;;;2084651;28;19978;-90
2022/05/02 01:47:12;;;;;;;;;;;9.30;69.10;;;;;;2084016;28;19963;-91
2022/05/02 01:48:12;;;;;;;;;;;9.30;69.10;;;;;;2083708;28;19924;-91
2022/05/02 01:49:13;;;;;;;;;;;9.30;69.10;;;;;;2083172;28;19909;-91
2022/05/02 01:50:13;;;;;;;;;;;9.30;69.10;;;;;;2082497;28;19923;-91
2022/05/02 01:51:14;;;;;;;;;;;9.30;69.10;;;;;;2083971;28;19917;-90
2022/05/02 01:52:15;;;;;;;;;;;9.30;69.10;;;;;;2091822;28;19925;-91
2022/05/02 01:53:15;;;;;;;;;;;9.30;69.10;;;;;;2083401;28;19918;-91
2022/05/02 01:54:16;;;;;;;;;;;9.30;69.10;;;;;;2084785;28;19920;-91
2022/05/02 01:55:17;;;;;;;;;;;9.30;69.10;;;;;;2088399;28;19917;-90
2022/05/02 01:56:17;;;;;;;;;;;9.30;69.00;;;;;;2101226;28;19919;-91
2022/05/02 01:57:18;;;;;;;;;;;9.30;69.00;;;;;;2092504;28;19956;-91
2022/05/02 01:58:18;;;;;;;;;;;9.30;69.10;;;;;;2084334;28;19913;-90
2022/05/02 01:59:19;;;;;;;;;;;9.30;69.00;;;;;;2101599;28;19919;-90
2022/05/02 02:00:20;;;;;;;;;;;9.30;69.00;;;;;;2100957;28;19916;-91
2022/05/02 02:01:20;;;;;;;;;;;9.30;69.10;;;;;;2084768;28;19975;-91
2022/05/02 02:02:21;;;;;;;;;;;9.30;69.00;;;;;;2100734;28;19967;-91
2022/05/02 02:03:21;;;;;;;;;;;9.30;69.00;;;;;;2100160;28;19916;-90
2022/05/02 02:05:50;;;;;;;;;;;9.30;69.00;;;;;;2085661;28;19917;-91
2022/05/02 02:06:51;;;;;;;;;;;9.30;69.00;;;;;;2089993;28;20335;-91
2022/05/02 02:07:52;;;;;;;;;;;9.30;69.00;;;;;;2091087;28;19998;-91
2022/05/02 02:08:53;;;;;;;;;;;9.30;69.00;;;;;;2082363;28;19944;-91
2022/05/02 02:09:53;;;;;;;;;;;9.30;68.90;;;;;;2082957;28;19916;-91
2022/05/02 02:10:55;;;;;;;;;;;9.30;69.00;;;;;;2092296;28;19999;-91
2022/05/02 02:11:57;;;;;;;;;;;9.30;69.00;;;;;;2091402;28;19912;-91
2022/05/02 02:12:58;;;;;;;;;;;9.30;69.10;;;;;;2092011;28;20050;-91
2022/05/02 02:13:58;;;;;;;;;;;9.30;69.00;;;;;;2089762;28;19968;-90
2022/05/02 02:14:59;;;;;;;;;;;9.30;69.10;;;;;;2090688;28;20293;-91
2022/05/02 02:16:01;;;;;;;;;;;9.30;69.20;;;;;;2066151;28;19926;-91
2022/05/02 02:17:02;;;;;;;;;;;9.30;69.20;;;;;;2083426;28;19952;-91
2022/05/02 02:18:02;;;;;;;;;;;9.20;69.20;;;;;;2099527;28;19979;-90
2022/05/02 02:19:04;;;;;;;;;;;9.20;69.20;;;;;;2091301;28;19909;-91
2022/05/02 02:20:05;;;;;;;;;;;9.20;69.20;;;;;;2096772;28;19923;-91
2022/05/02 02:21:06;;;;;;;;;;;9.30;69.30;;;;;;2084936;28;19918;-91
2022/05/02 02:22:16;;;;;;;;;;;9.20;69.20;;;;;;2087444;28;19921;-91
2022/05/02 02:23:17;;;;;;;;;;;9.20;69.20;;;;;;2097952;28;19920;-91
2022/05/02 02:24:17;;;;;;;;;;;9.20;69.20;;;;;;2091545;28;19967;-91
2022/05/02 02:25:18;;;;;;;;;;;9.20;69.20;;;;;;2091354;28;20289;-91
2022/05/02 02:26:18;;;;;;;;;;;9.20;69.20;;;;;;2094955;28;19920;-91
2022/05/02 02:27:19;;;;;;;;;;;9.20;69.30;;;;;;2099787;28;19908;-91
2022/05/02 02:28:20;;;;;;;;;;;9.20;69.30;;;;;;2083065;28;20392;-90
2022/05/02 02:29:20;;;;;;;;;;;9.20;69.40;;;;;;2082415;28;20374;-90
2022/05/02 02:30:21;;;;;;;;;;;9.10;69.30;;;;;;2082853;28;19924;-91
2022/05/02 02:31:21;;;;;;;;;;;9.10;69.40;;;;;;2074828;28;19930;-91
2022/05/02 02:32:22;;;;;;;;;;;9.10;69.40;;;;;;2090427;28;19913;-91
2022/05/02 02:33:23;;;;;;;;;;;9.10;69.50;;;;;;2090103;28;19919;-91
2022/05/02 02:34:23;;;;;;;;;;;9.10;69.60;;;;;;2082200;28;19924;-91
2022/05/02 02:35:24;;;;;;;;;;;9.00;69.60;;;;;;2084019;28;19940;-91
2022/05/02 02:36:25;;;;;;;;;;;9.00;69.60;;;;;;2090306;28;20365;-91
2022/05/02 02:37:26;;;;;;;;;;;9.00;69.70;;;;;;2099247;28;19913;-91
2022/05/02 02:38:26;;;;;;;;;;;9.00;69.70;;;;;;2082483;28;19988;-91
2022/05/02 02:39:27;;;;;;;;;;;8.90;69.80;;;;;;2073647;28;20381;-91
2022/05/02 02:40:27;;;;;;;;;;;8.90;69.80;;;;;;2073825;28;19922;-90
2022/05/02 02:41:28;;;;;;;;;;;8.90;69.80;;;;;;2088940;28;20016;-91
2022/05/02 02:42:28;;;;;;;;;;;8.90;69.80;;;;;;2090490;28;20012;-90
2022/05/02 02:43:29;;;;;;;;;;;8.90;69.90;;;;;;2083563;28;19917;-91
2022/05/02 02:44:30;;;;;;;;;;;8.90;69.90;;;;;;2081728;28;19916;-91
2022/05/02 02:45:30;;;;;;;;;;;8.90;70.00;;;;;;2084955;28;19924;-91
2022/05/02 02:46:31;;;;;;;;;;;8.80;70.00;;;;;;2082679;28;19963;-90
2022/05/02 02:47:31;;;;;;;;;;;8.80;70.00;;;;;;2082930;28;19919;-91
2022/05/02 02:48:32;;;;;;;;;;;8.80;70.00;;;;;;2074284;28;19925;-91
2022/05/02 02:49:32;;;;;;;;;;;8.80;70.10;;;;;;2091338;28;19928;-91
2022/05/02 02:50:33;;;;;;;;;;;8.80;70.10;;;;;;2091273;28;19917;-91
2022/05/02 02:51:34;;;;;;;;;;;8.80;70.20;;;;;;2091185;28;20004;-91
2022/05/02 02:52:34;;;;;;;;;;;8.70;70.10;;;;;;2100123;28;20372;-90
2022/05/02 02:53:35;;;;;;;;;;;8.70;70.20;;;;;;2091111;28;19963;-92
2022/05/02 02:54:36;;;;;;;;;;;8.70;70.30;;;;;;2078986;28;19921;-92
2022/05/02 02:55:36;;;;;;;;;;;8.70;70.40;;;;;;2079202;28;19917;-90
2022/05/02 02:56:37;;;;;;;;;;;8.70;70.40;;;;;;2089458;28;19939;-91
2022/05/02 02:57:37;;;;;;;;;;;8.60;70.40;;;;;;2095610;28;19923;-91
2022/05/02 02:58:38;;;;;;;;;;;8.60;70.40;;;;;;2093642;28;19913;-91
2022/05/02 02:59:38;;;;;;;;;;;8.60;70.40;;;;;;2093870;28;19924;-91
2022/05/02 03:00:39;;;;;;;;;;;8.60;70.40;;;;;;2103163;28;20378;-91
2022/05/02 03:01:40;;;;;;;;;;;8.60;70.50;;;;;;2093141;28;20007;-91
2022/05/02 03:02:41;;;;;;;;;;;8.60;70.50;;;;;;2067207;28;19914;-91
2022/05/02 03:03:42;;;;;;;;;;;8.60;70.50;;;;;;2074494;28;19918;-91
2022/05/02 03:06:02;;;;;;;;;;;8.60;70.60;;;;;;2091573;28;19917;-90
2022/05/02 03:07:03;;;;;;;;;;;8.60;70.60;;;;;;2098050;28;20059;-91
2022/05/02 03:08:03;;;;;;;;;;;8.50;70.50;;;;;;2090900;28;20370;-91
2022/05/02 03:09:04;;;;;;;;;;;8.50;70.60;;;;;;2084839;28;19913;-91
2022/05/02 03:10:05;;;;;;;;;;;8.50;70.60;;;;;;2097729;28;19916;-91
2022/05/02 03:11:06;;;;;;;;;;;8.50;70.60;;;;;;2090958;28;19917;-91
2022/05/02 03:12:07;;;;;;;;;;;8.50;70.60;;;;;;2089865;28;20297;-91
2022/05/02 03:13:07;;;;;;;;;;;8.50;70.60;;;;;;2083441;28;19923;-91
2022/05/02 03:14:08;;;;;;;;;;;8.50;70.60;;;;;;2074650;28;19917;-91
2022/05/02 03:15:09;;;;;;;;;;;8.50;70.60;;;;;;2073332;28;19924;-91
2022/05/02 03:16:10;;;;;;;;;;;8.50;70.60;;;;;;2074296;28;20012;-91
2022/05/02 03:17:10;;;;;;;;;;;8.50;70.70;;;;;;2088741;28;19959;-91
2022/05/02 03:18:11;;;;;;;;;;;8.50;70.70;;;;;;2093347;28;19920;-90
2022/05/02 03:19:12;;;;;;;;;;;8.40;70.70;;;;;;2089658;28;19997;-91
2022/05/02 03:20:12;;;;;;;;;;;8.40;70.70;;;;;;2091151;28;19913;-91
2022/05/02 03:21:13;;;;;;;;;;;8.40;70.70;;;;;;2091654;28;20380;-89
2022/05/02 03:22:14;;;;;;;;;;;8.40;70.80;;;;;;2084647;28;19928;-91
2022/05/02 03:23:14;;;;;;;;;;;8.40;70.80;;;;;;2084115;28;19932;-91
2022/05/02 03:24:15;;;;;;;;;;;8.40;70.80;;;;;;2090833;28;19948;-91
2022/05/02 03:25:15;;;;;;;;;;;8.30;70.80;;;;;;2081240;28;20361;-91
2022/05/02 03:26:16;;;;;;;;;;;8.30;70.90;;;;;;2094472;28;20304;-90
2022/05/02 03:27:16;;;;;;;;;;;8.30;70.90;;;;;;2090020;28;20364;-90
2022/05/02 03:28:17;;;;;;;;;;;8.30;70.90;;;;;;2071977;28;19922;-91
2022/05/02 03:29:18;;;;;;;;;;;8.30;70.90;;;;;;2082856;28;19963;-91
2022/05/02 03:30:18;;;;;;;;;;;8.30;71.00;;;;;;2082430;28;20468;-91
2022/05/02 03:31:19;;;;;;;;;;;8.30;71.00;;;;;;2082306;28;19935;-91
2022/05/02 03:32:20;;;;;;;;;;;8.20;71.00;;;;;;2101610;28;19924;-91
2022/05/02 03:33:21;;;;;;;;;;;8.30;71.10;;;;;;2089672;28;19962;-91
2022/05/02 03:34:21;;;;;;;;;;;8.20;71.00;;;;;;2074915;28;19914;-91
2022/05/02 03:35:22;;;;;;;;;;;8.20;71.20;;;;;;2097618;28;20396;-90
2022/05/02 03:36:22;;;;;;;;;;;8.20;71.20;;;;;;2066354;28;20370;-91
2022/05/02 03:37:23;;;;;;;;;;;8.20;71.20;;;;;;2073943;28;19965;-91
2022/05/02 03:38:23;;;;;;;;;;;8.20;71.20;;;;;;2082295;28;19909;-90
2022/05/02 03:39:24;;;;;;;;;;;8.20;71.30;;;;;;2095015;28;20376;-91
2022/05/02 03:40:25;;;;;;;;;;;8.10;71.20;;;;;;2095264;28;19919;-90
2022/05/02 03:41:25;;;;;;;;;;;8.10;71.20;;;;;;2074272;28;19917;-90
2022/05/02 03:42:26;;;;;;;;;;;8.10;71.20;;;;;;2089929;28;19921;-91
2022/05/02 03:43:27;;;;;;;;;;;8.10;71.30;;;;;;2092187;28;20039;-91
2022/05/02 03:44:28;;;;;;;;;;;8.10;71.30;;;;;;2084174;28;20320;-90
2022/05/02 03:45:28;;;;;;;;;;;8.10;71.30;;;;;;2090518;28;19916;-90
2022/05/02 03:46:29;;;;;;;;;;;8.10;71.30;;;;;;2089686;28;19927;-91
2022/05/02 03:47:29;;;;;;;;;;;8.10;71.30;;;;;;2090901;28;19909;-91
2022/05/02 03:48:30;;;;;;;;;;;8.10;71.40;;;;;;2082186;28;19909;-91
2022/05/02 03:49:30;;;;;;;;;;;8.10;72.00;;;;;;2089681;28;19913;-91
2022/05/02 03:50:31;;;;;;;;;;;8.10;71.40;;;;;;2090427;28;19956;-91
2022/05/02 03:51:31;;;;;;;;;;;8.10;71.40;;;;;;2083349;28;20535;-91
2022/05/02 03:52:32;;;;;;;;;;;8.00;71.40;;;;;;2074146;28;19956;-91
2022/05/02 03:53:33;;;;;;;;;;;8.00;71.40;;;;;;2089570;28;19923;-90
2022/05/02 03:54:33;;;;;;;;;;;8.00;71.50;;;;;;2087345;28;19975;-90
2022/05/02 03:55:34;;;;;;;;;;;8.00;72.10;;;;;;2074087;28;19921;-91
2022/05/02 03:56:34;;;;;;;;;;;8.00;71.50;;;;;;2088624;28;19952;-91
2022/05/02 03:57:35;;;;;;;;;;;8.00;71.50;;;;;;2090598;28;19920;-90
2022/05/02 03:58:36;;;;;;;;;;;8.00;71.50;;;;;;2091959;28;20369;-90
2022/05/02 03:59:36;;;;;;;;;;;8.00;71.60;;;;;;2083147;28;19914;-91
2022/05/02 04:00:37;;;;;;;;;;;8.00;71.60;;;;;;2081867;28;19928;-90
2022/05/02 04:01:40;;;;;;;;;;;8.00;71.60;;;;;;2080531;28;19980;-90
2022/05/02 04:02:41;;;;;;;;;;;8.00;71.60;;;;;;2097862;28;19950;-91
2022/05/02 04:03:42;;;;;;;;;;;8.00;71.60;;;;;;2089964;28;19913;-91
2022/05/02 04:04:42;;;;;;;;;;;8.00;71.50;;;;;;2083806;28;20270;-90
2022/05/02 04:05:43;;;;;;;;;;;8.00;71.50;;;;;;2072481;28;20370;-91
2022/05/02 04:06:43;;;;;;;;;;;8.00;71.50;;;;;;2081451;28;20286;-91
2022/05/02 04:07:44;;;;;;;;;;;8.00;71.50;;;;;;2089605;28;19920;-91
2022/05/02 04:08:44;;;;;;;;;;;8.00;71.50;;;;;;2090632;28;20427;-91
2022/05/02 04:09:45;;;;;;;;;;;8.00;71.50;;;;;;2089428;28;19948;-90
2022/05/02 04:10:46;;;;;;;;;;;8.00;71.50;;;;;;2081677;28;19943;-91
2022/05/02 04:11:46;;;;;;;;;;;8.00;71.50;;;;;;2095650;28;20284;-91
2022/05/02 04:12:47;;;;;;;;;;;8.00;71.50;;;;;;2089705;28;20420;-91
2022/05/02 04:13:47;;;;;;;;;;;8.00;71.70;;;;;;2085714;28;19946;-91
2022/05/02 04:14:48;;;;;;;;;;;7.90;71.60;;;;;;2089802;28;19948;-90
2022/05/02 04:15:49;;;;;;;;;;;7.90;71.50;;;;;;2090467;28;19924;-92
2022/05/02 04:16:50;;;;;;;;;;;7.90;71.60;;;;;;2097904;28;19912;-91
2022/05/02 04:17:50;;;;;;;;;;;7.90;71.70;;;;;;2079872;28;19917;-91
2022/05/02 04:18:51;;;;;;;;;;;7.90;71.60;;;;;;2081643;28;19913;-90
2022/05/02 04:19:52;;;;;;;;;;;7.90;71.60;;;;;;2093934;28;19913;-91
2022/05/02 04:20:52;;;;;;;;;;;7.90;71.60;;;;;;2086779;28;20020;-90
2022/05/02 04:21:53;;;;;;;;;;;7.90;71.60;;;;;;2078219;28;19921;-90
2022/05/02 04:22:54;;;;;;;;;;;7.90;71.50;;;;;;2098605;28;19971;-90
2022/05/02 04:23:54;;;;;;;;;;;7.90;71.60;;;;;;2099627;28;19969;-90
2022/05/02 04:24:55;;;;;;;;;;;7.90;71.60;;;;;;2089274;28;20292;-90
2022/05/02 04:25:56;;;;;;;;;;;7.90;71.50;;;;;;2090088;28;20094;-90
2022/05/02 04:26:59;;;;;;;;;;;7.90;71.60;;;;;;2081800;28;19917;-90
2022/05/02 04:28:00;;;;;;;;;;;7.90;72.20;;;;;;2089185;28;19909;-90
2022/05/02 04:29:01;;;;;;;;;;;7.90;71.60;;;;;;2081190;28;19913;-90
2022/05/02 04:30:01;;;;;;;;;;;7.90;71.60;;;;;;2081419;28;20349;-90
2022/05/02 04:31:02;;;;;;;;;;;7.90;71.60;;;;;;2090233;28;20008;-89
2022/05/02 04:32:03;;;;;;;;;;;7.90;71.70;;;;;;2088152;28;19916;-90
2022/05/02 04:33:03;;;;;;;;;;;7.80;71.70;;;;;;2089781;28;19913;-90
2022/05/02 04:34:04;;;;;;;;;;;7.90;71.70;;;;;;2096376;28;20339;-90
2022/05/02 04:35:05;;;;;;;;;;;7.90;71.70;;;;;;2077161;28;19924;-90
2022/05/02 04:36:06;;;;;;;;;;;7.90;71.70;;;;;;2082097;28;20436;-90
2022/05/02 04:37:09;;;;;;;;;;;7.90;71.70;;;;;;2081862;28;19909;-90
2022/05/02 04:38:10;;;;;;;;;;;7.80;71.70;;;;;;2080383;28;20010;-90
2022/05/02 04:39:10;;;;;;;;;;;7.90;71.70;;;;;;2088593;28;19912;-90
2022/05/02 04:40:11;;;;;;;;;;;7.90;71.70;;;;;;2097207;28;19943;-90
2022/05/02 04:41:14;;;;;;;;;;;7.90;71.70;;;;;;2080809;28;20429;-90
2022/05/02 04:42:15;;;;;;;;;;;7.90;71.60;;;;;;2079917;28;19918;-90
2022/05/02 04:43:15;;;;;;;;;;;7.90;71.70;;;;;;2104794;28;20288;-90
2022/05/02 04:44:16;;;;;;;;;;;8.00;71.70;;;;;;2085117;28;19921;-89
2022/05/02 04:45:16;;;;;;;;;;;7.90;71.60;;;;;;2072617;28;19932;-90
2022/05/02 04:46:20;;;;;;;;;;;8.00;71.70;;;;;;2098739;28;19921;-90
2022/05/02 04:47:21;;;;;;;;;;;8.00;71.70;;;;;;2093995;28;19927;-90
2022/05/02 04:48:21;;;;;;;;;;;8.00;71.70;;;;;;2090751;28;19916;-90
2022/05/02 04:49:22;;;;;;;;;;;8.00;71.70;;;;;;2097672;28;19912;-90
2022/05/02 04:50:23;;;;;;;;;;;8.00;71.70;;;;;;2082577;28;19917;-90
2022/05/02 04:51:23;;;;;;;;;;;8.00;71.80;;;;;;2090540;28;19967;-90
2022/05/02 04:52:24;;;;;;;;;;;8.00;71.80;;;;;;2097608;28;19948;-90
2022/05/02 04:53:24;;;;;;;;;;;8.00;71.80;;;;;;2088988;28;19924;-89
2022/05/02 04:54:25;;;;;;;;;;;8.00;71.90;;;;;;2089116;28;19917;-90
2022/05/02 04:55:25;;;;;;;;;;;8.00;71.80;;;;;;2086338;28;19921;-90
2022/05/02 04:56:26;;;;;;;;;;;8.00;71.80;;;;;;2080176;28;19964;-90
2022/05/02 04:57:27;;;;;;;;;;;8.00;71.80;;;;;;2100189;28;20660;-89
2022/05/02 04:58:27;;;;;;;;;;;8.00;72.40;;;;;;2098012;28;19916;-90
2022/05/02 04:59:28;;;;;;;;;;;8.00;71.80;;;;;;2086295;28;19967;-91
2022/05/02 05:00:29;;;;;;;;;;;8.00;71.80;;;;;;2080641;28;19917;-90
2022/05/02 05:01:29;;;;;;;;;;;8.00;71.80;;;;;;2072912;28;19929;-90
2022/05/02 05:02:30;;;;;;;;;;;8.10;71.80;;;;;;2089665;28;19959;-90
2022/05/02 05:03:30;;;;;;;;;;;8.00;71.70;;;;;;2088492;28;19971;-90
2022/05/02 05:04:31;;;;;;;;;;;8.10;71.80;;;;;;2065221;28;19914;-91
2022/05/02 05:05:32;;;;;;;;;;;8.10;71.70;;;;;;2082037;28;20016;-90
2022/05/02 05:06:32;;;;;;;;;;;8.10;71.70;;;;;;2088652;28;20423;-90
2022/05/02 05:07:35;;;;;;;;;;;8.20;71.70;;;;;;2081033;28;19916;-90
2022/05/02 05:08:36;;;;;;;;;;;8.20;71.70;;;;;;2084104;28;20308;-90
2022/05/02 05:09:36;;;;;;;;;;;8.20;71.60;;;;;;2094506;28;19917;-90
2022/05/02 05:10:46;;;;;;;;;;;8.20;71.50;;;;;;2089209;28;19917;-90
2022/05/02 05:11:50;;;;;;;;;;;8.30;71.60;;;;;;2083309;28;19920;-90
2022/05/02 05:12:57;;;;;;;;;;;8.30;71.40;;;;;;2082633;28;19942;-90
2022/05/02 05:17:15;;;;;;;;;;;8.50;71.20;;;;;;2087552;28;19913;-90
2022/05/02 05:18:21;;;;;;;;;;;8.70;71.00;;;;;;2106515;28;20340;-91
2022/05/02 05:19:40;;;;;;;;;;;8.70;70.90;;;;;;2097955;28;20407;-90
2022/05/02 05:20:59;;;;;;;;;;;8.80;70.80;;;;;;2100968;28;19956;-90
2022/05/02 05:22:12;;;;;;;;;;;8.90;70.80;;;;;;2095966;28;20000;-89
2022/05/02 05:23:20;;;;;;;;;;;8.90;70.60;;;;;;2090284;28;20452;-90
2022/05/02 05:24:29;;;;;;;;;;;9.00;70.60;;;;;;2083839;28;19913;-90
2022/05/02 05:25:36;;;;;;;;;;;9.00;70.40;;;;;;2090185;28;19948;-90
2022/05/02 05:26:51;;;;;;;;;;;9.20;70.40;;;;;;2088960;28;19909;-90
2022/05/02 05:28:04;;;;;;;;;;;9.20;70.30;;;;;;2085595;28;19913;-90
2022/05/02 05:29:11;;;;;;;;;;;9.30;70.20;;;;;;2098886;28;19966;-90
2022/05/02 05:30:12;;;;;;;;;;;9.40;70.20;;;;;;2097889;28;20442;-90
2022/05/02 05:31:19;;;;;;;;;;;9.40;70.00;;;;;;2098578;28;19912;-90
2022/05/02 05:32:38;;;;;;;;;;;9.50;70.00;;;;;;2097370;28;19967;-90
2022/05/02 05:33:51;;;;;;;;;;;9.50;69.90;;;;;;2098868;28;19924;-91
2022/05/02 05:34:54;;;;;;;;;;;9.60;69.80;;;;;;2088910;28;21359;-90
2022/05/02 05:36:20;;;;;;;;;;;9.70;69.70;;;;;;2089664;28;19925;-90
2022/05/02 05:37:30;;;;;;;;;;;9.80;69.60;;;;;;2087050;28;19909;-91
2022/05/02 05:38:37;;;;;;;;;;;9.90;69.60;;;;;;2088231;28;20294;-90
2022/05/02 05:39:53;;;;;;;;;;;9.90;69.40;;;;;;2098705;28;20003;-90
2022/05/02 05:41:01;;;;;;;;;;;10.00;69.40;;;;;;2089790;28;20318;-91
2022/05/02 05:42:15;;;;;;;;;;;10.10;69.30;;;;;;2099630;28;19917;-90
2022/05/02 05:43:34;;;;;;;;;;;10.20;69.20;;;;;;2095585;28;20393;-90
2022/05/02 05:44:53;;;;;;;;;;;10.20;69.00;;;;;;2094042;28;19913;-90
2022/05/02 05:46:12;;;;;;;;;;;10.30;68.90;;;;;;2090821;28;19928;-90
2022/05/02 05:47:37;;;;;;;;;;;10.40;68.80;;;;;;2094424;28;19908;-89
2022/05/02 05:48:44;;;;;;;;;;;10.50;68.70;;;;;;2095673;28;19912;-90
2022/05/02 05:49:56;;;;;;;;;;;10.60;68.60;;;;;;2103904;28;20019;-90
2022/05/02 05:51:03;;;;;;;;;;;10.60;68.60;;;;;;2097531;28;19916;-91
2022/05/02 05:52:04;;;;;;;;;;;10.70;68.50;;;;;;2084675;28;20421;-91
2022/05/02 05:53:11;;;;;;;;;;;10.70;68.40;;;;;;2091713;28;19909;-91
2022/05/02 05:54:20;;;;;;;;;;;10.80;68.40;;;;;;2091935;28;20355;-91
2022/05/02 05:55:22;;;;;;;;;;;10.80;68.90;;;;;;2092638;28;19983;-91
2022/05/02 05:56:23;;;;;;;;;;;10.90;68.30;;;;;;2100289;28;19965;-91
2022/05/02 05:57:32;;;;;;;;;;;10.90;68.20;;;;;;2092596;28;20003;-90
2022/05/02 05:59:02;;;;;;;;;;;11.00;68.20;;;;;;2089890;28;19909;-89
2022/05/02 06:00:06;;;;;;;;;;;11.00;68.10;;;;;;2068623;28;19981;-91
2022/05/02 06:01:10;;;;;;;;;;;11.10;68.10;;;;;;2059445;28;19910;-90
2022/05/02 06:02:10;;;;;;;;;;;11.10;68.00;;;;;;2076453;28;19921;-91
2022/05/02 06:03:14;;;;;;;;;;;11.20;68.00;;;;;;2075614;28;20374;-91
2022/05/02 06:04:15;;;;;;;;;;;11.20;68.00;;;;;;2083305;28;19963;-91
2022/05/02 06:05:16;;;;;;;;;;;11.30;67.90;;;;;;2084263;28;19935;-90
2022/05/02 06:06:17;;;;;;;;;;;11.30;67.90;;;;;;2091931;28;20309;-90
2022/05/02 06:07:18;;;;;;;;;;;11.30;67.90;;;;;;2090424;28;19940;-90
2022/05/02 06:08:20;;;;;;;;;;;11.40;68.40;;;;;;2091469;28;19932;-90
2022/05/02 06:09:20;;;;;;;;;;;11.40;67.80;;;;;;2089913;28;20269;-90
2022/05/02 06:10:23;;;;;;;;;;;11.40;67.70;;;;;;2090384;28;19923;-90
2022/05/02 06:11:24;;;;;;;;;;;11.40;67.70;;;;;;2091310;28;19913;-91
2022/05/02 06:12:28;;;;;;;;;;;11.50;67.70;;;;;;2090525;28;19913;-90
2022/05/02 06:13:31;;;;;;;;;;;11.50;67.70;;;;;;2083690;28;19909;-91